ENGINEERING TRACK TESTING
Weather & Rail Temperature Monitoring

Weather station LAWTON

Lawton Track Office (Lawton, MI)

Measurement History

Home Current History Weekly graphs

,

to download data from the start of , to the end of ,

Conditions for past 24 hours (since 09/01/2026 01:30 AM)

Time Main Track S rail Main Track N rail Siding Track S rail SidingTrack N rail Outside Air
Temperature
Solar
Radiation
Max. Wind Humidity Air Pressure Rain
SpeedDir
09/02/2026 01:15 AM 76 °F 76 °F 76 °F 76 °F 79.2 °F 0 watt/m2 0 mph --- 89 % 29.71 in Hg 0 in
09/02/2026 01:00 AM 76 °F 76 °F 76 °F 76 °F 79.6 °F 0 watt/m2 3 mph WSW 89 % 29.715 in Hg 0 in
09/02/2026 12:45 AM 77 °F 77 °F 76 °F 77 °F 79.8 °F 0 watt/m2 3 mph SW 88 % 29.716 in Hg 0 in
09/02/2026 12:30 AM 77 °F 77 °F 76 °F 77 °F 80 °F 0 watt/m2 0 mph --- 87 % 29.719 in Hg 0 in
09/02/2026 12:15 AM 77 °F 77 °F 76 °F 77 °F 80.4 °F 0 watt/m2 0 mph --- 87 % 29.715 in Hg 0 in
09/02/2026 12:00 AM 78 °F 78 °F 77 °F 78 °F 80.7 °F 0 watt/m2 3 mph SW 87 % 29.708 in Hg 0 in
09/01/2026 11:45 PM 78 °F 78 °F 77 °F 78 °F 81 °F 0 watt/m2 5 mph SW 87 % 29.706 in Hg 0 in
09/01/2026 11:30 PM 78 °F 78 °F 77 °F 78 °F 81.2 °F 0 watt/m2 5 mph W 86 % 29.704 in Hg 0 in
09/01/2026 11:15 PM 78 °F 78 °F 78 °F 78 °F 81.5 °F 0 watt/m2 5 mph SW 86 % 29.705 in Hg 0 in
09/01/2026 11:00 PM 79 °F 79 °F 78 °F 79 °F 81.8 °F 0 watt/m2 4 mph W 85 % 29.701 in Hg 0 in
09/01/2026 10:45 PM 79 °F 79 °F 78 °F 79 °F 82 °F 0 watt/m2 5 mph WSW 85 % 29.702 in Hg 0 in
09/01/2026 10:30 PM 79 °F 79 °F 79 °F 79 °F 82 °F 0 watt/m2 5 mph SW 86 % 29.701 in Hg 0 in
09/01/2026 10:15 PM 80 °F 80 °F 79 °F 80 °F 81.9 °F 0 watt/m2 5 mph WNW 87 % 29.701 in Hg 0 in
09/01/2026 10:00 PM 80 °F 80 °F 79 °F 80 °F 81.6 °F 0 watt/m2 7 mph W 88 % 29.698 in Hg 0 in
09/01/2026 09:45 PM 81 °F 81 °F 80 °F 81 °F 81.1 °F 0 watt/m2 7 mph SW 89 % 29.693 in Hg 0 in
09/01/2026 09:30 PM 81 °F 81 °F 81 °F 81 °F 80.7 °F 0 watt/m2 6 mph SE 90 % 29.692 in Hg 0 in
09/01/2026 09:15 PM 82 °F 82 °F 81 °F 82 °F 81 °F 0 watt/m2 0 mph --- 90 % 29.69 in Hg 0 in
09/01/2026 09:00 PM 83 °F 83 °F 82 °F 83 °F 81.7 °F 0 watt/m2 0 mph --- 90 % 29.69 in Hg 0 in
09/01/2026 08:45 PM 84 °F 84 °F 83 °F 84 °F 82.4 °F 0 watt/m2 0 mph --- 89 % 29.692 in Hg 0 in
09/01/2026 08:30 PM 85 °F 85 °F 84 °F 85 °F 83 °F 0 watt/m2 0 mph --- 89 % 29.696 in Hg 0 in
09/01/2026 08:15 PM 86 °F 85 °F 85 °F 85 °F 83.4 °F 11 watt/m2 0 mph --- 89 % 29.7 in Hg 0 in
09/01/2026 08:00 PM 87 °F 86 °F 85 °F 86 °F 83.6 °F 31 watt/m2 3 mph SW 89 % 29.701 in Hg 0 in
09/01/2026 07:45 PM 87 °F 87 °F 86 °F 87 °F 83.6 °F 50 watt/m2 0 mph --- 90 % 29.697 in Hg 0 in
09/01/2026 07:30 PM 88 °F 87 °F 86 °F 87 °F 83.4 °F 71 watt/m2 0 mph --- 90 % 29.7 in Hg 0 in
09/01/2026 07:15 PM 88 °F 88 °F 87 °F 87 °F 83.1 °F 132 watt/m2 2 mph ENE 90 % 29.702 in Hg 0 in
09/01/2026 07:00 PM 89 °F 88 °F 87 °F 88 °F 82.9 °F 205 watt/m2 5 mph E 90 % 29.705 in Hg 0 in
09/01/2026 06:45 PM 87 °F 87 °F 87 °F 88 °F 82.8 °F 206 watt/m2 6 mph E 90 % 29.714 in Hg 0 in
09/01/2026 06:30 PM 87 °F 86 °F 86 °F 87 °F 82.9 °F 211 watt/m2 4 mph ESE 90 % 29.725 in Hg 0 in
09/01/2026 06:15 PM 86 °F 86 °F 86 °F 86 °F 82.7 °F 162 watt/m2 3 mph ENE 90 % 29.721 in Hg 0 in
09/01/2026 06:00 PM 86 °F 86 °F 86 °F 86 °F 82.5 °F 164 watt/m2 0 mph --- 90 % 29.714 in Hg 0 in
09/01/2026 05:45 PM 86 °F 86 °F 86 °F 86 °F 82.4 °F 181 watt/m2 2 mph E 90 % 29.709 in Hg 0 in
09/01/2026 05:30 PM 86 °F 86 °F 86 °F 86 °F 82.2 °F 185 watt/m2 4 mph ESE 89 % 29.708 in Hg 0 in
09/01/2026 05:15 PM 86 °F 86 °F 86 °F 86 °F 82.3 °F 135 watt/m2 3 mph NNW 89 % 29.711 in Hg 0 in
09/01/2026 05:00 PM 85 °F 86 °F 86 °F 86 °F 81.3 °F 183 watt/m2 3 mph W 89 % 29.705 in Hg 0 in
09/01/2026 04:45 PM 84 °F 84 °F 84 °F 84 °F 80.9 °F 494 watt/m2 3 mph SW 90 % 29.706 in Hg 0 in
09/01/2026 04:30 PM 81 °F 81 °F 82 °F 82 °F 79.7 °F 411 watt/m2 4 mph E 90 % 29.706 in Hg 0 in
09/01/2026 04:15 PM 80 °F 80 °F 80 °F 80 °F 78.4 °F 158 watt/m2 4 mph N 90 % 29.715 in Hg 0 in
09/01/2026 04:00 PM 79 °F 79 °F 80 °F 80 °F 78.5 °F 204 watt/m2 3 mph N 90 % 29.721 in Hg 0 in
09/01/2026 03:45 PM 79 °F 79 °F 79 °F 79 °F 77.3 °F 182 watt/m2 5 mph SE 89 % 29.698 in Hg 0 in
09/01/2026 03:30 PM 79 °F 80 °F 79 °F 80 °F 77.2 °F 52 watt/m2 9 mph SSW 89 % 29.704 in Hg 0.07 in
09/01/2026 03:15 PM 82 °F 82 °F 82 °F 82 °F 79 °F 30 watt/m2 6 mph W 89 % 29.752 in Hg 0.05 in
09/01/2026 03:00 PM 83 °F 84 °F 83 °F 84 °F 79.6 °F 61 watt/m2 7 mph W 89 % 29.744 in Hg 0.01 in
09/01/2026 02:45 PM 85 °F 86 °F 86 °F 86 °F 80.3 °F 71 watt/m2 6 mph W 88 % 29.727 in Hg 0 in
09/01/2026 02:30 PM 87 °F 87 °F 86 °F 87 °F 80.5 °F 94 watt/m2 4 mph W 87 % 29.753 in Hg 0 in
09/01/2026 02:15 PM 88 °F 88 °F 83 °F 88 °F 80.8 °F 136 watt/m2 7 mph NNW 87 % 29.752 in Hg 0.01 in
09/01/2026 02:00 PM 90 °F 90 °F 90 °F 91 °F 81.6 °F 120 watt/m2 4 mph WNW 85 % 29.752 in Hg 0 in
09/01/2026 01:45 PM 93 °F 94 °F 94 °F 94 °F 82.3 °F 85 watt/m2 5 mph WSW 83 % 29.74 in Hg 0.01 in
09/01/2026 01:30 PM 97 °F 99 °F 98 °F 99 °F 83.4 °F 97 watt/m2 7 mph W 80 % 29.735 in Hg 0 in
09/01/2026 01:15 PM 99 °F 102 °F 102 °F 102 °F 83.9 °F 191 watt/m2 6 mph WSW 79 % 29.747 in Hg 0 in
09/01/2026 01:00 PM 102 °F 104 °F 104 °F 105 °F 84.5 °F 118 watt/m2 9 mph W 76 % 29.732 in Hg 0 in
09/01/2026 12:45 PM 104 °F 107 °F 108 °F 107 °F 85.3 °F 193 watt/m2 8 mph W 75 % 29.734 in Hg 0 in
09/01/2026 12:30 PM 105 °F 108 °F 110 °F 109 °F 86 °F 369 watt/m2 9 mph W 73 % 29.731 in Hg 0 in
09/01/2026 12:15 PM 104 °F 107 °F 108 °F 107 °F 86.2 °F 680 watt/m2 11 mph W 72 % 29.727 in Hg 0 in
09/01/2026 12:00 PM 102 °F 104 °F 105 °F 105 °F 85.8 °F 646 watt/m2 7 mph WSW 74 % 29.731 in Hg 0 in
09/01/2026 11:45 AM 100 °F 102 °F 103 °F 103 °F 85.1 °F 361 watt/m2 8 mph NNW 75 % 29.734 in Hg 0 in
09/01/2026 11:30 AM 99 °F 101 °F 102 °F 101 °F 84.1 °F 522 watt/m2 9 mph W 75 % 29.733 in Hg 0 in
09/01/2026 11:15 AM 96 °F 98 °F 99 °F 98 °F 83.7 °F 638 watt/m2 8 mph NNW 76 % 29.738 in Hg 0 in
09/01/2026 11:00 AM 93 °F 94 °F 96 °F 94 °F 82.8 °F 570 watt/m2 10 mph W 78 % 29.736 in Hg 0 in
09/01/2026 10:45 AM 89 °F 91 °F 92 °F 91 °F 81.4 °F 506 watt/m2 12 mph W 78 % 29.739 in Hg 0 in
09/01/2026 10:30 AM 87 °F 88 °F 89 °F 88 °F 80.6 °F 387 watt/m2 9 mph WNW 80 % 29.739 in Hg 0 in
09/01/2026 10:15 AM 85 °F 86 °F 87 °F 85 °F 79.8 °F 398 watt/m2 11 mph W 81 % 29.736 in Hg 0 in
09/01/2026 10:00 AM 82 °F 83 °F 84 °F 82 °F 79.1 °F 351 watt/m2 10 mph W 82 % 29.737 in Hg 0 in
09/01/2026 09:45 AM 79 °F 80 °F 81 °F 80 °F 78.4 °F 314 watt/m2 9 mph W 82 % 29.738 in Hg 0 in
09/01/2026 09:30 AM 76 °F 77 °F 78 °F 77 °F 77.9 °F 332 watt/m2 8 mph W 83 % 29.737 in Hg 0 in
09/01/2026 09:15 AM 74 °F 74 °F 75 °F 74 °F 77.2 °F 221 watt/m2 9 mph W 84 % 29.742 in Hg 0 in
09/01/2026 09:00 AM 72 °F 72 °F 72 °F 72 °F 76.2 °F 241 watt/m2 7 mph WSW 86 % 29.741 in Hg 0 in
09/01/2026 08:45 AM 70 °F 71 °F 70 °F 71 °F 74.9 °F 171 watt/m2 5 mph WSW 88 % 29.74 in Hg 0 in
09/01/2026 08:30 AM 70 °F 70 °F 69 °F 70 °F 73.9 °F 112 watt/m2 5 mph SW 89 % 29.74 in Hg 0 in
09/01/2026 08:15 AM 69 °F 69 °F 69 °F 69 °F 73 °F 86 watt/m2 5 mph W 90 % 29.738 in Hg 0 in
09/01/2026 08:00 AM 68 °F 68 °F 68 °F 68 °F 72.5 °F 39 watt/m2 5 mph W 91 % 29.733 in Hg 0 in
09/01/2026 07:45 AM 68 °F 68 °F 68 °F 68 °F 72.1 °F 18 watt/m2 4 mph WSW 91 % 29.727 in Hg 0 in
09/01/2026 07:30 AM 68 °F 68 °F 67 °F 68 °F 71.8 °F 9 watt/m2 3 mph WSW 91 % 29.719 in Hg 0 in
09/01/2026 07:15 AM 68 °F 68 °F 67 °F 68 °F 71.8 °F 1 watt/m2 1 mph S 92 % 29.713 in Hg 0 in
09/01/2026 07:00 AM 68 °F 68 °F 67 °F 68 °F 71.7 °F 0 watt/m2 4 mph W 92 % 29.719 in Hg 0 in
09/01/2026 06:45 AM 67 °F 68 °F 67 °F 67 °F 71.4 °F 0 watt/m2 5 mph W 92 % 29.717 in Hg 0 in
09/01/2026 06:30 AM 67 °F 67 °F 67 °F 67 °F 71 °F 0 watt/m2 5 mph SW 92 % 29.714 in Hg 0 in
09/01/2026 06:15 AM 67 °F 67 °F 67 °F 67 °F 70.4 °F 0 watt/m2 4 mph WSW 92 % 29.713 in Hg 0 in
09/01/2026 06:00 AM 67 °F 67 °F 67 °F 67 °F 70.1 °F 0 watt/m2 0 mph --- 92 % 29.715 in Hg 0 in
09/01/2026 05:45 AM 67 °F 67 °F 67 °F 67 °F 70.1 °F 0 watt/m2 0 mph --- 92 % 29.711 in Hg 0 in
09/01/2026 05:30 AM 67 °F 67 °F 67 °F 67 °F 70.3 °F 0 watt/m2 0 mph --- 92 % 29.713 in Hg 0 in
09/01/2026 05:15 AM 67 °F 67 °F 67 °F 67 °F 70.3 °F 0 watt/m2 0 mph --- 92 % 29.709 in Hg 0 in
09/01/2026 05:00 AM 67 °F 68 °F 67 °F 67 °F 70.3 °F 0 watt/m2 0 mph --- 92 % 29.707 in Hg 0 in
09/01/2026 04:45 AM 67 °F 68 °F 67 °F 68 °F 70.3 °F 0 watt/m2 0 mph --- 91 % 29.705 in Hg 0 in
09/01/2026 04:30 AM 68 °F 68 °F 67 °F 68 °F 70.3 °F 0 watt/m2 0 mph --- 91 % 29.702 in Hg 0 in
09/01/2026 04:15 AM 68 °F 68 °F 68 °F 68 °F 70.4 °F 0 watt/m2 0 mph --- 91 % 29.703 in Hg 0 in
09/01/2026 04:00 AM 68 °F 68 °F 68 °F 68 °F 70.7 °F 0 watt/m2 0 mph --- 91 % 29.705 in Hg 0 in
09/01/2026 03:45 AM 68 °F 68 °F 68 °F 68 °F 70.8 °F 0 watt/m2 0 mph --- 90 % 29.703 in Hg 0 in
09/01/2026 03:30 AM 68 °F 69 °F 68 °F 68 °F 71 °F 0 watt/m2 0 mph --- 90 % 29.707 in Hg 0 in
09/01/2026 03:15 AM 69 °F 69 °F 68 °F 69 °F 71.3 °F 0 watt/m2 0 mph --- 90 % 29.705 in Hg 0 in
09/01/2026 03:00 AM 69 °F 69 °F 69 °F 69 °F 71.7 °F 0 watt/m2 0 mph --- 89 % 29.706 in Hg 0 in
09/01/2026 02:45 AM 69 °F 69 °F 69 °F 69 °F 71.9 °F 0 watt/m2 0 mph --- 89 % 29.707 in Hg 0 in
09/01/2026 02:30 AM 69 °F 69 °F 69 °F 69 °F 72.4 °F 0 watt/m2 0 mph --- 88 % 29.703 in Hg 0 in
09/01/2026 02:15 AM 70 °F 70 °F 69 °F 70 °F 73 °F 0 watt/m2 0 mph --- 88 % 29.707 in Hg 0 in
09/01/2026 02:00 AM 70 °F 70 °F 70 °F 70 °F 73.7 °F 0 watt/m2 0 mph --- 87 % 29.708 in Hg 0 in
09/01/2026 01:45 AM 70 °F 70 °F 70 °F 70 °F 74.6 °F 0 watt/m2 0 mph --- 85 % 29.708 in Hg 0 in

Alarms Station information Line AM Subdivision NILES